Time;durP1;ratioP1;P1;durP2;ratioP2;P2;SDS_P1;SDS_P2;PMS_P1;PMS_P2;Temp;Humidity;BMP_temperature;BMP_pressure;BME280_temperature;BME280_humidity;BME280_pressure;Samples;Min_cycle;Max_cycle;Signal;HPM_P1;HPM_P2
2021/05/16 00:01:42;;;;;;;;;;;9.80;99.90;;;;;;5094465;28;19916;-77
2021/05/16 00:04:07;;;;;;;;;;;9.90;99.90;;;;;;5076283;28;20006;-78
2021/05/16 00:06:33;;;;;;;;;;;9.90;99.90;;;;;;5094349;28;19912;-77
2021/05/16 00:08:58;;;;;;;;;;;9.80;99.90;;;;;;5094318;28;19908;-78
2021/05/16 00:11:24;;;;;;;;;;;9.70;99.90;;;;;;5076104;28;19915;-80
2021/05/16 00:13:50;;;;;;;;;;;9.80;99.90;;;;;;5076113;28;19909;-77
2021/05/16 00:16:15;;;;;;;;;;;9.80;99.90;;;;;;5075979;28;19931;-77
2021/05/16 00:18:41;;;;;;;;;;;9.70;99.90;;;;;;5075702;28;19934;-77
2021/05/16 00:21:07;;;;;;;;;;;9.80;99.90;;;;;;5075800;28;20437;-79
2021/05/16 00:23:32;;;;;;;;;;;9.70;99.90;;;;;;5075823;28;19914;-78
2021/05/16 00:25:58;;;;;;;;;;;9.80;99.90;;;;;;5075736;28;19908;-77
2021/05/16 00:28:23;;;;;;;;;;;9.70;99.90;;;;;;5093809;28;20306;-79
2021/05/16 00:30:49;;;;;;;;;;;9.70;99.90;;;;;;5093923;28;19943;-78
2021/05/16 00:33:14;;;;;;;;;;;9.70;99.90;;;;;;5075334;28;19941;-79
2021/05/16 00:35:40;;;;;;;;;;;9.70;99.90;;;;;;5075551;28;19916;-79
2021/05/16 00:38:06;;;;;;;;;;;9.70;99.90;;;;;;5075479;28;20023;-79
2021/05/16 00:40:32;;;;;;;;;;;9.80;99.90;;;;;;5074945;28;20446;-79
2021/05/16 00:42:58;;;;;;;;;;;9.80;99.90;;;;;;5075746;28;20380;-79
2021/05/16 00:45:27;;;;;;;;;;;9.80;99.90;;;;;;5075881;28;19934;-79
2021/05/16 00:47:56;;;;;;;;;;;9.80;99.90;;;;;;5075374;28;19908;-79
2021/05/16 00:50:23;;;;;;;;;;;9.80;99.90;;;;;;5075079;28;19915;-77
2021/05/16 00:52:49;;;;;;;;;;;9.90;99.90;;;;;;5074652;28;20302;-80
2021/05/16 00:55:15;;;;;;;;;;;9.90;99.90;;;;;;5075438;28;19922;-79
2021/05/16 00:57:41;;;;;;;;;;;9.90;99.90;;;;;;5075370;28;20367;-77
2021/05/16 01:00:08;;;;;;;;;;;9.70;99.90;;;;;;5074682;28;19908;-77
2021/05/16 01:02:34;;;;;;;;;;;9.70;99.90;;;;;;5093226;28;19916;-77
2021/05/16 01:04:59;;;;;;;;;;;9.70;99.90;;;;;;5075221;28;20334;-78
2021/05/16 01:07:25;;;;;;;;;;;9.70;99.90;;;;;;5094129;28;19908;-80
2021/05/16 01:09:51;;;;;;;;;;;9.70;99.90;;;;;;5075396;28;19908;-77
2021/05/16 01:12:16;;;;;;;;;;;9.70;99.90;;;;;;5075682;28;19912;-79
2021/05/16 01:14:46;;;;;;;;;;;9.70;99.90;;;;;;5076249;28;19909;-77
2021/05/16 01:17:12;;;;;;;;;;;9.70;99.90;;;;;;5095091;28;19957;-78
2021/05/16 01:19:38;;;;;;;;;;;9.70;99.90;;;;;;5076456;28;20337;-78
2021/05/16 01:22:04;;;;;;;;;;;9.70;99.90;;;;;;5077085;28;20517;-78
2021/05/16 01:24:30;;;;;;;;;;;9.80;99.90;;;;;;5076744;28;19931;-79
2021/05/16 01:26:58;;;;;;;;;;;9.90;99.90;;;;;;5076590;28;20355;-79
2021/05/16 01:29:23;;;;;;;;;;;9.90;99.90;;;;;;5094226;28;19947;-78
2021/05/16 01:31:49;;;;;;;;;;;10.00;99.90;;;;;;5075437;28;19930;-78
2021/05/16 01:34:15;;;;;;;;;;;10.00;99.90;;;;;;5075433;28;19908;-77
2021/05/16 01:36:40;;;;;;;;;;;10.00;99.90;;;;;;5076177;28;19916;-80
2021/05/16 01:39:07;;;;;;;;;;;10.00;99.90;;;;;;5075051;28;19908;-80
2021/05/16 01:41:33;;;;;;;;;;;10.00;99.90;;;;;;5075943;28;19916;-79
2021/05/16 01:43:59;;;;;;;;;;;10.00;99.90;;;;;;5075967;28;19908;-79
2021/05/16 01:46:24;;;;;;;;;;;10.10;99.90;;;;;;5075905;28;19915;-80
2021/05/16 01:48:50;;;;;;;;;;;10.00;99.90;;;;;;5074917;28;19912;-77
2021/05/16 01:51:15;;;;;;;;;;;10.00;99.90;;;;;;5075984;28;19916;-80
2021/05/16 01:53:41;;;;;;;;;;;10.00;99.90;;;;;;5075196;28;20381;-77
2021/05/16 01:56:07;;;;;;;;;;;10.00;99.90;;;;;;5094269;28;19914;-78
2021/05/16 01:58:36;;;;;;;;;;;10.00;99.90;;;;;;5093873;28;20277;-77
2021/05/16 02:01:02;;;;;;;;;;;10.00;99.90;;;;;;5093840;28;19916;-80
2021/05/16 02:03:29;;;;;;;;;;;10.00;99.90;;;;;;5077899;28;19908;-78
2021/05/16 02:05:54;;;;;;;;;;;10.00;99.90;;;;;;5079680;28;19915;-77
2021/05/16 02:08:20;;;;;;;;;;;9.90;99.90;;;;;;5079483;28;20278;-80
2021/05/16 02:10:45;;;;;;;;;;;9.90;99.90;;;;;;5079680;28;19973;-78
2021/05/16 02:13:11;;;;;;;;;;;9.90;99.90;;;;;;5097601;28;19950;-78
2021/05/16 02:15:36;;;;;;;;;;;9.90;99.90;;;;;;5079418;28;19919;-80
2021/05/16 02:18:02;;;;;;;;;;;9.90;99.90;;;;;;5096836;28;19908;-77
2021/05/16 02:20:28;;;;;;;;;;;10.00;99.90;;;;;;5078820;28;20367;-80
2021/05/16 02:22:54;;;;;;;;;;;10.00;99.90;;;;;;5096799;28;19916;-78
2021/05/16 02:25:20;;;;;;;;;;;10.00;99.90;;;;;;5097039;28;20272;-78
2021/05/16 02:27:48;;;;;;;;;;;9.90;99.90;;;;;;5079045;28;19908;-80
2021/05/16 02:30:15;;;;;;;;;;;10.00;99.90;;;;;;5096858;28;19915;-78
2021/05/16 02:32:41;;;;;;;;;;;10.00;99.90;;;;;;5078967;28;20431;-80
2021/05/16 02:35:09;;;;;;;;;;;10.00;99.90;;;;;;5078923;28;19920;-79
2021/05/16 02:37:35;;;;;;;;;;;10.10;99.90;;;;;;5078893;28;19908;-79
2021/05/16 02:40:00;;;;;;;;;;;10.10;99.90;;;;;;5078927;28;20378;-80
2021/05/16 02:42:26;;;;;;;;;;;10.10;99.90;;;;;;5078767;28;19916;-78
2021/05/16 02:44:51;;;;;;;;;;;10.10;99.90;;;;;;5097285;28;20395;-78
2021/05/16 02:47:17;;;;;;;;;;;10.10;99.90;;;;;;5078808;28;19912;-78
2021/05/16 02:49:42;;;;;;;;;;;10.10;99.90;;;;;;5077900;28;19994;-78
2021/05/16 02:52:07;;;;;;;;;;;10.20;99.90;;;;;;5078408;28;19908;-78
2021/05/16 02:54:33;;;;;;;;;;;10.30;99.90;;;;;;5078178;28;19918;-78
2021/05/16 02:56:58;;;;;;;;;;;10.30;99.90;;;;;;5078607;28;20355;-79
2021/05/16 02:59:25;;;;;;;;;;;10.30;99.90;;;;;;5078278;28;19915;-79
2021/05/16 03:01:51;;;;;;;;;;;10.30;99.90;;;;;;5078721;28;19998;-78
2021/05/16 03:04:17;;;;;;;;;;;10.30;99.90;;;;;;5079249;28;20390;-78
2021/05/16 03:06:42;;;;;;;;;;;10.30;99.90;;;;;;5097307;28;19962;-78
2021/05/16 03:09:08;;;;;;;;;;;10.30;99.90;;;;;;5079085;28;19908;-80
2021/05/16 03:11:33;;;;;;;;;;;10.30;99.90;;;;;;5078089;28;19919;-77
2021/05/16 03:13:58;;;;;;;;;;;10.30;99.90;;;;;;5079570;28;19908;-80
2021/05/16 03:16:24;;;;;;;;;;;10.30;99.90;;;;;;5097049;28;19908;-78
2021/05/16 03:18:49;;;;;;;;;;;10.20;99.90;;;;;;5078949;28;19917;-78
2021/05/16 03:21:15;;;;;;;;;;;10.30;99.90;;;;;;5097586;28;19912;-78
2021/05/16 03:23:40;;;;;;;;;;;10.30;99.90;;;;;;5079401;28;19940;-77
2021/05/16 03:26:06;;;;;;;;;;;10.30;99.90;;;;;;5097722;28;19995;-79
2021/05/16 03:28:31;;;;;;;;;;;10.20;99.90;;;;;;5079893;28;20484;-80
2021/05/16 03:30:57;;;;;;;;;;;10.20;99.90;;;;;;5078651;28;19934;-79
2021/05/16 03:33:22;;;;;;;;;;;10.20;99.90;;;;;;5080121;28;20143;-77
2021/05/16 03:35:48;;;;;;;;;;;10.20;99.90;;;;;;5079551;28;20364;-77
2021/05/16 03:38:14;;;;;;;;;;;10.20;99.90;;;;;;5079964;28;19908;-80
2021/05/16 03:40:39;;;;;;;;;;;10.30;99.90;;;;;;5079271;28;19912;-79
2021/05/16 03:43:05;;;;;;;;;;;10.30;99.90;;;;;;5096946;28;19990;-77
2021/05/16 03:45:30;;;;;;;;;;;10.30;99.90;;;;;;5078526;28;20294;-77
2021/05/16 03:47:56;;;;;;;;;;;10.30;99.90;;;;;;5078932;28;19995;-80
2021/05/16 03:50:21;;;;;;;;;;;10.30;99.90;;;;;;5078302;28;20414;-79
2021/05/16 03:52:47;;;;;;;;;;;10.30;99.90;;;;;;5095284;28;19908;-77
2021/05/16 03:55:13;;;;;;;;;;;10.30;99.90;;;;;;5079095;28;19912;-77
2021/05/16 03:57:39;;;;;;;;;;;10.20;99.90;;;;;;5078057;28;19947;-78
2021/05/16 04:00:05;;;;;;;;;;;10.30;99.90;;;;;;5096800;28;19908;-78
2021/05/16 04:02:30;;;;;;;;;;;10.20;99.90;;;;;;5078828;28;19908;-78
2021/05/16 04:04:56;;;;;;;;;;;10.20;99.90;;;;;;5077934;28;19954;-77
2021/05/16 04:07:21;;;;;;;;;;;10.30;99.90;;;;;;5078974;28;19951;-78
2021/05/16 04:09:47;;;;;;;;;;;10.30;99.90;;;;;;5096491;28;20182;-78
2021/05/16 04:12:12;;;;;;;;;;;10.30;99.90;;;;;;5078271;28;20379;-80
2021/05/16 04:14:38;;;;;;;;;;;10.30;99.90;;;;;;5077835;28;19908;-79
2021/05/16 04:17:03;;;;;;;;;;;10.30;99.90;;;;;;5078888;28;19912;-79
2021/05/16 04:19:29;;;;;;;;;;;10.30;99.90;;;;;;5078703;28;20268;-80
2021/05/16 04:21:54;;;;;;;;;;;10.30;99.90;;;;;;5077250;28;19912;-78
2021/05/16 04:24:20;;;;;;;;;;;10.30;99.90;;;;;;5077477;28;19908;-77
2021/05/16 04:26:45;;;;;;;;;;;10.30;99.90;;;;;;5076663;28;19908;-77
2021/05/16 04:29:11;;;;;;;;;;;10.40;99.90;;;;;;5078406;28;19999;-79
2021/05/16 04:31:36;;;;;;;;;;;10.40;99.90;;;;;;5097049;28;20402;-80
2021/05/16 04:34:02;;;;;;;2.75;1.35;;;10.50;99.90;;;;;;5096739;28;19908;-78
2021/05/16 04:36:27;;;;;;;2.20;1.17;;;10.50;99.90;;;;;;5079210;28;20028;-79
2021/05/16 04:38:53;;;;;;;2.30;1.70;;;10.50;99.90;;;;;;5096472;28;20036;-78
2021/05/16 04:41:20;;;;;;;5.03;1.85;;;10.50;99.90;;;;;;5078281;28;20028;-79
2021/05/16 04:43:46;;;;;;;;;;;10.50;99.90;;;;;;5096984;28;20020;-79
2021/05/16 04:46:11;;;;;;;;;;;10.50;99.90;;;;;;5076478;28;19949;-79
2021/05/16 04:48:37;;;;;;;;;;;10.50;99.90;;;;;;5075337;28;19954;-79
2021/05/16 04:51:02;;;;;;;;;;;10.50;99.90;;;;;;5094783;28;19904;-79
2021/05/16 04:53:30;;;;;;;;;;;10.60;99.90;;;;;;5076130;28;20428;-77
2021/05/16 04:55:56;;;;;;;;;;;10.60;99.90;;;;;;5075486;28;19998;-78
2021/05/16 04:58:22;;;;;;;;;;;10.70;99.90;;;;;;5074830;28;19955;-79
2021/05/16 05:00:48;;;;;;;;;;;10.70;99.90;;;;;;5075256;28;20332;-79
2021/05/16 05:03:14;;;;;;;;;;;10.70;99.90;;;;;;5075835;28;20275;-79
2021/05/16 05:05:39;;;;;;;;;;;10.90;99.90;;;;;;5075239;28;19911;-80
2021/05/16 05:08:05;;;;;;;;;;;10.90;99.90;;;;;;5074821;28;19904;-78
2021/05/16 05:10:30;;;;;;;;;;;11.00;99.90;;;;;;5074007;28;19904;-80
2021/05/16 05:12:55;;;;;;;;;;;11.00;99.90;;;;;;5075645;28;19927;-79
2021/05/16 05:15:21;;;;;;;;;;;11.00;99.90;;;;;;5075717;28;20414;-79
2021/05/16 05:17:46;;;;;;;;;;;10.90;99.90;;;;;;5075480;28;20252;-80
2021/05/16 05:20:12;;;;;;;;;;;10.90;99.90;;;;;;5075386;28;19908;-80
2021/05/16 05:22:38;;;;;;;;;;;10.90;99.90;;;;;;5075529;28;20003;-79
2021/05/16 05:25:03;;;;;;;;;;;10.90;99.90;;;;;;5075844;28;20525;-79
2021/05/16 05:27:29;;;;;;;;;;;10.90;99.90;;;;;;5076174;28;19951;-79
2021/05/16 05:29:54;;;;;;;;;;;11.00;99.90;;;;;;5075558;28;19904;-79
2021/05/16 05:32:20;;;;;;;;;;;11.00;99.90;;;;;;5093884;28;19930;-79
2021/05/16 05:34:45;;;;;;;;;;;11.00;99.90;;;;;;5075420;28;19918;-79
2021/05/16 05:37:11;;;;;;;;;;;11.00;99.90;;;;;;5094074;28;19972;-79
2021/05/16 05:39:36;;;;;;;;;;;11.00;99.90;;;;;;5075889;28;19908;-79
2021/05/16 05:42:02;;;;;;;;;;;11.00;99.90;;;;;;5075789;28;19908;-79
2021/05/16 05:44:27;;;;;;;;;;;11.00;99.90;;;;;;5076059;28;19904;-79
2021/05/16 05:46:53;;;;;;;;;;;11.10;99.90;;;;;;5076016;28;19915;-79
2021/05/16 05:49:18;;;;;;;;;;;11.10;99.90;;;;;;5075670;28;20371;-79
2021/05/16 05:51:44;;;;;;;;;;;11.30;99.90;;;;;;5077184;28;19976;-79
2021/05/16 05:54:09;;;;;;;;;;;11.50;99.90;;;;;;5076130;28;19915;-79
2021/05/16 05:56:35;;;;;;;;;;;11.80;99.90;;;;;;5075612;28;20345;-79
2021/05/16 05:59:01;;;;;;;;;;;11.90;99.90;;;;;;5075111;28;19904;-79
2021/05/16 06:01:26;;;;;;;;;;;11.90;99.90;;;;;;5074599;28;20101;-79
2021/05/16 06:03:52;;;;;;;;;;;12.10;99.90;;;;;;5074501;28;20428;-80
2021/05/16 06:06:17;;;;;;;;;;;12.50;99.90;;;;;;5072485;28;19904;-79
2021/05/16 06:08:43;;;;;;;;;;;12.80;99.90;;;;;;5092996;28;19943;-80
2021/05/16 06:11:08;;;;;;;7.22;1.75;;;13.20;99.90;;;;;;5075038;28;19904;-79
2021/05/16 06:13:34;;;;;;;;;;;13.30;99.90;;;;;;5073521;28;19936;-79
2021/05/16 06:15:59;;;;;;;3.25;0.80;;;13.40;99.90;;;;;;5094101;28;24100;-80
2021/05/16 06:18:25;;;;;;;4.07;1.50;;;13.40;99.90;;;;;;5075617;28;19915;-79
2021/05/16 06:20:50;;;;;;;;;;;13.40;99.90;;;;;;5076464;28;20232;-79
2021/05/16 06:23:17;;;;;;;;;;;13.30;99.90;;;;;;5094483;28;24075;-79
2021/05/16 06:25:44;;;;;;;2.20;1.40;;;13.30;99.90;;;;;;5075922;28;20018;-79
2021/05/16 06:28:10;;;;;;;1.45;1.00;;;13.20;99.90;;;;;;5075309;28;20217;-79
2021/05/16 06:30:35;;;;;;;2.07;0.97;;;13.20;99.90;;;;;;5075108;28;19911;-80
2021/05/16 06:33:01;;;;;;;0.50;0.50;;;13.00;99.90;;;;;;5074779;28;19953;-79
2021/05/16 06:35:26;;;;;;;0.90;0.65;;;12.80;99.90;;;;;;5074469;28;20010;-79
2021/05/16 06:37:52;;;;;;;;;;;12.60;99.90;;;;;;5075131;28;19943;-79
2021/05/16 06:40:17;;;;;;;2.10;1.35;;;12.50;99.90;;;;;;5074413;28;19912;-79
2021/05/16 06:42:43;;;;;;;3.40;0.70;;;12.40;99.90;;;;;;5092348;28;19912;-79
2021/05/16 06:45:10;;;;;;;1.40;1.05;;;12.30;99.90;;;;;;5075250;28;20027;-79
2021/05/16 06:47:36;;;;;;;1.75;0.75;;;12.20;99.90;;;;;;5094380;28;19904;-79
2021/05/16 06:50:01;;;;;;;;;;;12.40;99.90;;;;;;5078723;28;19934;-79
2021/05/16 06:52:27;;;;;;;4.38;0.60;;;13.80;99.90;;;;;;5079998;28;19911;-80
2021/05/16 06:54:53;;;;;;;1.70;0.40;;;16.90;99.90;;;;;;5079927;28;20111;-80
2021/05/16 06:57:18;;;;;;;0.77;0.30;;;19.40;99.90;;;;;;5079972;28;20494;-79
2021/05/16 06:59:47;;;;;;;1.23;0.47;;;20.50;99.90;;;;;;5079955;28;20016;-79
2021/05/16 07:02:13;;;;;;;0.77;0.40;;;22.00;99.90;;;;;;5081125;28;20562;-80
2021/05/16 07:04:40;;;;;;;1.70;0.32;;;23.30;99.90;;;;;;5081208;28;20055;-80
2021/05/16 07:07:06;;;;;;;1.58;0.77;;;23.90;99.90;;;;;;5078803;28;20021;-79
2021/05/16 07:09:32;;;;;;;4.70;0.85;;;23.60;99.90;;;;;;5077201;28;20050;-79
2021/05/16 07:11:57;;;;;;;1.67;0.60;;;21.20;99.90;;;;;;5077073;28;20044;-80
2021/05/16 07:14:23;;;;;;;1.15;0.52;;;19.80;99.90;;;;;;5076613;28;20055;-80
2021/05/16 07:16:48;;;;;;;0.75;0.65;;;19.80;99.90;;;;;;5076538;28;20032;-81
2021/05/16 07:19:14;;;;;;;1.77;0.25;;;20.10;99.90;;;;;;5095445;28;20417;-80
2021/05/16 07:21:39;;;;;;;;;;;18.60;99.90;;;;;;5095263;28;20553;-80
2021/05/16 07:24:05;;;;;;;1.63;0.70;;;18.00;99.90;;;;;;5095248;28;19904;-80
2021/05/16 07:26:31;;;;;;;0.95;0.50;;;17.80;99.90;;;;;;5077328;28;20031;-78
2021/05/16 07:28:57;;;;;;;1.52;0.40;;;17.30;99.90;;;;;;5076282;28;19947;-80
2021/05/16 07:31:22;;;;;;;;;;;19.80;99.90;;;;;;5076215;28;20032;-81
2021/05/16 07:33:48;;;;;;;2.55;1.30;;;22.50;99.90;;;;;;5076520;28;20370;-80
2021/05/16 07:36:14;;;;;;;0.85;0.40;;;21.10;99.90;;;;;;5075974;28;20044;-79
2021/05/16 07:38:39;;;;;;;0.52;0.50;;;20.10;99.90;;;;;;5075947;28;20043;-79
2021/05/16 07:41:05;;;;;;;;;;;20.60;99.90;;;;;;5094274;28;20024;-80
2021/05/16 07:43:30;;;;;;;1.58;0.35;;;23.00;99.90;;;;;;5076009;28;20013;-78
2021/05/16 07:45:56;;;;;;;0.63;0.43;;;23.10;99.90;;;;;;5094429;28;20034;-80
2021/05/16 07:48:28;;;;;;;;;;;23.60;99.90;;;;;;5076291;28;20020;-80
2021/05/16 07:50:57;;;;;;;0.60;0.57;;;24.70;99.10;;;;;;5075904;28;20024;-79
2021/05/16 07:53:23;;;;;;;1.80;0.90;;;24.60;99.90;;;;;;5076523;28;20031;-81
2021/05/16 07:55:49;;;;;;;1.13;0.47;;;25.60;96.70;;;;;;5076261;28;20367;-81
2021/05/16 07:58:15;;;;;;;;;;;25.70;96.50;;;;;;5077096;28;20304;-81
2021/05/16 08:00:41;;;;;;;;;;;23.80;95.30;;;;;;5075572;28;19915;-80
2021/05/16 08:03:06;;;;;;;;;;;21.20;99.90;;;;;;5075951;28;19908;-81
2021/05/16 08:05:31;;;;;;;;;;;19.50;99.90;;;;;;5094035;28;19908;-80
2021/05/16 08:07:57;;;;;;;;;;;19.60;99.90;;;;;;5076019;28;19915;-81
2021/05/16 08:10:23;;;;;;;;;;;20.00;99.90;;;;;;5093752;28;19951;-79
2021/05/16 08:12:49;;;;;;;;;;;20.70;99.90;;;;;;5075830;28;19912;-81
2021/05/16 08:15:14;;;;;;;;;;;21.20;99.90;;;;;;5076129;28;19943;-81
2021/05/16 08:17:40;;;;;;;;;;;20.90;99.90;;;;;;5075933;28;20358;-80
2021/05/16 08:20:06;;;;;;;;;;;20.30;99.90;;;;;;5075273;28;19908;-79
2021/05/16 08:22:32;;;;;;;;;;;20.00;99.90;;;;;;5093678;28;19912;-81
2021/05/16 08:24:57;;;;;;;;;;;19.70;99.90;;;;;;5075376;28;19915;-81
2021/05/16 08:27:23;;;;;;;;;;;19.50;99.90;;;;;;5075670;28;19912;-80
2021/05/16 08:29:48;;;;;;;;;;;19.00;99.90;;;;;;5093410;28;20002;-81
2021/05/16 08:32:14;;;;;;;;;;;18.60;99.90;;;;;;5075307;28;20298;-80
2021/05/16 08:34:40;;;;;;;;;;;18.40;99.90;;;;;;5093349;28;19958;-80
2021/05/16 08:37:06;;;;;;;;;;;18.40;99.90;;;;;;5075409;28;19908;-79
2021/05/16 08:39:32;;;;;;;;;;;18.90;99.90;;;;;;5074936;28;20396;-80
2021/05/16 08:41:58;;;;;;;;;;;19.50;99.90;;;;;;5075237;28;19958;-81
2021/05/16 08:44:23;;;;;;;;;;;19.70;99.90;;;;;;5075188;28;19957;-80
2021/05/16 08:46:49;;;;;;;;;;;21.00;99.90;;;;;;5075176;28;20394;-81
2021/05/16 08:49:14;;;;;;;;;;;20.70;99.90;;;;;;5093151;28;19915;-79
2021/05/16 08:51:44;;;;;;;;;;;20.00;99.90;;;;;;5093422;28;19999;-80
2021/05/16 08:54:10;;;;;;;;;;;18.40;99.90;;;;;;5074991;28;19997;-81
2021/05/16 08:56:35;;;;;;;;;;;17.50;99.90;;;;;;5075039;28;20275;-80
2021/05/16 08:59:00;;;;;;;;;;;17.60;99.90;;;;;;5074758;28;20439;-81
2021/05/16 09:01:33;;;;;;;;;;;18.00;99.90;;;;;;5074873;28;20287;-81
2021/05/16 09:04:17;;;;;;;;;;;18.00;99.90;;;;;;5074810;28;20550;-82
2021/05/16 09:06:42;;;;;;;;;;;17.90;99.90;;;;;;5075354;28;19912;-82
2021/05/16 09:09:27;;;;;;;;;;;21.70;99.90;;;;;;5074769;28;19957;-81
2021/05/16 09:12:03;;;;;;;;;;;24.30;99.90;;;;;;5074880;28;19914;-80
2021/05/16 09:14:47;;;;;;;;;;;24.70;96.60;;;;;;5074344;28;19912;-80
2021/05/16 09:17:32;;;;;;;;;;;23.00;95.70;;;;;;5078997;28;19923;-81
2021/05/16 09:19:59;;;;;;;;;;;20.60;99.90;;;;;;5073153;28;19908;-80
2021/05/16 09:22:31;;;;;;;;;;;18.80;99.90;;;;;;5087435;28;19911;-80
2021/05/16 09:25:06;;;;;;;;;;;18.30;99.90;;;;;;5093635;28;19912;-81
2021/05/16 09:27:34;;;;;;;;;;;20.90;99.90;;;;;;5093629;28;20425;-82
2021/05/16 09:29:59;;;;;;;;;;;24.20;99.90;;;;;;5093460;28;20286;-81
2021/05/16 09:32:25;;;;;;;;;;;23.20;99.90;;;;;;5093793;28;19904;-80
2021/05/16 09:34:51;;;;;;;;;;;22.40;99.90;;;;;;5096087;28;19912;-81
2021/05/16 09:37:16;;;;;;;;;;;21.50;99.90;;;;;;5073233;28;20316;-80
2021/05/16 09:39:44;;;;;;;;;;;20.70;99.90;;;;;;5073329;28;19977;-81
2021/05/16 09:42:09;;;;;;;;;;;19.70;99.90;;;;;;5073192;28;19915;-81
2021/05/16 09:44:37;;;;;;;;;;;19.30;99.90;;;;;;5073557;28;19905;-81
2021/05/16 09:47:09;;;;;;;;;;;19.30;99.90;;;;;;5073703;28;19907;-81
2021/05/16 09:49:35;;;;;;;;;;;21.20;99.90;;;;;;5091250;28;19904;-81
2021/05/16 09:52:08;;;;;;;;;;;21.90;99.90;;;;;;5073299;28;19938;-81
2021/05/16 09:54:52;;;;;;;;;;;23.20;99.90;;;;;;5073537;28;19952;-80
2021/05/16 09:57:17;;;;;;;;;;;23.70;99.90;;;;;;5093766;28;19934;-81
2021/05/16 09:59:44;;;;;;;;;;;23.90;99.90;;;;;;5111156;28;20366;-80
2021/05/16 10:02:10;;;;;;;;;;;23.50;99.10;;;;;;5093945;28;19915;-81
2021/05/16 10:04:35;;;;;;;;;;;23.30;98.40;;;;;;5094768;28;19904;-80
2021/05/16 10:07:01;;;;;;;4.80;0.93;;;22.80;99.90;;;;;;5094881;28;19904;-81
2021/05/16 10:09:26;;;;;;;;;;;23.90;99.90;;;;;;5094734;28;20050;-81
2021/05/16 10:11:52;;;;;;;;;;;23.10;97.90;;;;;;5113082;28;19903;-81
2021/05/16 10:14:21;;;;;;;;;;;22.70;98.60;;;;;;5094661;28;19904;-81
2021/05/16 10:16:48;;;;;;;;;;;23.20;97.90;;;;;;5094433;28;19908;-80
2021/05/16 10:19:15;;;;;;;;;;;22.20;98.10;;;;;;5112610;28;19910;-81
2021/05/16 10:21:41;;;;;;;;;;;22.30;99.90;;;;;;5112802;28;20351;-81
2021/05/16 10:24:08;;;;;;;;;;;21.40;98.50;;;;;;5113696;28;19903;-81
2021/05/16 10:26:33;;;;;;;;;;;21.00;99.30;;;;;;5097492;28;19908;-81
2021/05/16 10:29:03;;;;;;;;;;;20.70;99.90;;;;;;5098330;28;20289;-80
2021/05/16 10:31:38;;;;;;;;;;;21.40;99.90;;;;;;5098348;28;19911;-81
2021/05/16 10:34:22;;;;;;;;;;;23.70;99.90;;;;;;5098677;28;20169;-81
2021/05/16 10:36:47;;;;;;;;;;;26.30;94.00;;;;;;5095282;28;19911;-81
2021/05/16 10:39:33;;;;;;;;;;;25.90;88.20;;;;;;5086650;28;19908;-82
2021/05/16 10:42:12;;;;;;;;;;;25.90;87.30;;;;;;5086914;28;19983;-81
2021/05/16 10:44:40;;;;;;;;;;;23.90;89.30;;;;;;5086679;28;19911;-82
2021/05/16 10:47:06;;;;;;;;;;;21.70;95.30;;;;;;5088044;28;19911;-80
2021/05/16 10:49:33;;;;;;;;;;;21.70;95.80;;;;;;5077944;28;19904;-80
2021/05/16 10:52:18;;;;;;;;;;;21.90;95.40;;;;;;5078107;28;20378;-80
2021/05/16 10:54:47;;;;;;;;;;;22.00;97.30;;;;;;5096097;28;20445;-81
2021/05/16 10:57:15;;;;;;;;;;;20.70;97.50;;;;;;5095662;28;19904;-80
2021/05/16 10:59:40;;;;;;;;;;;19.90;99.90;;;;;;5077126;28;19954;-81
2021/05/16 11:02:06;;;;;;;;;;;19.20;99.90;;;;;;5077111;28;19981;-80
2021/05/16 11:04:45;;;;;;;;;;;18.50;99.90;;;;;;5077260;28;19912;-80
2021/05/16 11:07:29;;;;;;;;;;;17.90;99.90;;;;;;5077333;28;19904;-80
2021/05/16 11:10:15;;;;;;;;;;;17.60;99.90;;;;;;5076890;28;19904;-80
2021/05/16 11:12:40;;;;;;;;;;;17.40;99.90;;;;;;5078536;28;19904;-81
2021/05/16 11:15:06;;;;;;;;;;;20.10;99.90;;;;;;5095475;28;19904;-82
2021/05/16 11:17:31;;;;;;;;;;;22.50;99.90;;;;;;5095786;28;19904;-81
2021/05/16 11:19:57;;;;;;;;;;;22.30;99.90;;;;;;5077204;28;20003;-80
2021/05/16 11:22:22;;;;;;;;;;;22.60;99.90;;;;;;5077413;28;19931;-81
2021/05/16 11:24:49;;;;;;;;;;;23.50;98.50;;;;;;5077308;28;20386;-82
2021/05/16 11:27:25;;;;;;;;;;;23.40;97.20;;;;;;5077405;28;20002;-81
2021/05/16 11:29:52;;;;;;;;;;;22.70;94.40;;;;;;5094857;28;19904;-81
2021/05/16 11:32:27;;;;;;;;;;;22.20;98.30;;;;;;5077200;28;19904;-81
2021/05/16 11:35:07;;;;;;;;;;;22.10;99.90;;;;;;5077086;28;19934;-81
2021/05/16 11:37:32;;;;;;;;;;;22.10;98.90;;;;;;5076671;28;19950;-81
2021/05/16 11:40:11;;;;;;;;;;;21.80;99.90;;;;;;5094582;28;19908;-81
2021/05/16 11:42:39;;;;;;;;;;;21.00;99.90;;;;;;5094907;28;19907;-81
2021/05/16 11:45:05;;;;;;;;;;;20.80;99.90;;;;;;5076779;28;19908;-81
2021/05/16 11:47:37;;;;;;;;;;;21.40;99.90;;;;;;5077070;28;19908;-82
2021/05/16 11:50:04;;;;;;;;;;;22.10;97.00;;;;;;5076141;28;20355;-80
2021/05/16 11:52:30;;;;;;;;;;;22.40;94.80;;;;;;5076581;28;20143;-80
2021/05/16 11:54:59;;;;;;;;;;;22.00;97.30;;;;;;5076682;28;19908;-81
2021/05/16 11:57:25;;;;;;;;;;;22.00;95.30;;;;;;5095113;28;20317;-81
2021/05/16 11:59:50;;;;;;;;;;;21.90;96.00;;;;;;5076009;28;19964;-81
2021/05/16 12:02:16;;;;;;;;;;;21.50;93.60;;;;;;5076431;28;19919;-81
2021/05/16 12:04:41;;;;;;;;;;;20.80;99.40;;;;;;5076388;28;19942;-81
2021/05/16 12:07:07;;;;;;;;;;;20.80;98.00;;;;;;5095182;28;19910;-82
2021/05/16 12:09:39;;;;;;;;;;;20.20;96.60;;;;;;5075905;28;20041;-81
2021/05/16 12:12:15;;;;;;;;;;;20.20;96.80;;;;;;5075874;28;19910;-81
2021/05/16 12:14:43;;;;;;;;;;;20.40;97.80;;;;;;5075932;28;19904;-81
2021/05/16 12:17:08;;;;;;;;;;;20.40;97.10;;;;;;5075807;28;19904;-80
2021/05/16 12:19:37;;;;;;;;;;;20.60;99.90;;;;;;5075772;28;19962;-82
2021/05/16 12:22:05;;;;;;;;;;;20.90;99.40;;;;;;5093773;28;19995;-81
2021/05/16 12:24:35;;;;;;;;;;;21.40;98.00;;;;;;5094218;28;19910;-81
2021/05/16 12:27:01;;;;;;;;;;;20.80;96.90;;;;;;5075797;28;19926;-81
2021/05/16 12:29:27;;;;;;;;;;;20.30;99.00;;;;;;5075706;28;19904;-81
2021/05/16 12:31:53;;;;;;;;;;;20.10;99.90;;;;;;5075857;28;19949;-80
2021/05/16 12:34:22;;;;;;;;;;;20.20;99.30;;;;;;5075878;28;19916;-81
2021/05/16 12:36:53;;;;;;;;;;;20.50;99.90;;;;;;5075672;28;19930;-81
2021/05/16 12:39:38;;;;;;;;;;;21.40;99.90;;;;;;5075764;28;19995;-80
2021/05/16 12:42:21;;;;;;;;;;;22.00;99.60;;;;;;5075620;28;20003;-80
2021/05/16 12:44:46;;;;;;;;;;;21.70;97.50;;;;;;5075895;28;19904;-80
2021/05/16 12:47:20;;;;;;;;;;;21.50;96.40;;;;;;5075490;28;19931;-80
2021/05/16 12:49:45;;;;;;;;;;;21.50;99.90;;;;;;5075093;28;19911;-80
2021/05/16 12:52:21;;;;;;;;;;;21.50;96.60;;;;;;5075385;28;19904;-80
2021/05/16 12:54:47;;;;;;;;;;;21.60;98.80;;;;;;5075484;28;19911;-80
2021/05/16 12:57:21;;;;;;;;;;;22.00;98.90;;;;;;5075365;28;20379;-80
2021/05/16 12:59:46;;;;;;;;;;;21.70;99.50;;;;;;5075073;28;20349;-79
2021/05/16 13:02:13;;;;;;;;;;;20.90;99.20;;;;;;5075269;28;20248;-80
2021/05/16 13:04:46;;;;;;;;;;;21.30;99.90;;;;;;5075415;28;19904;-80
2021/05/16 13:07:11;;;;;;;;;;;21.50;98.40;;;;;;5093986;28;19911;-81
2021/05/16 13:09:37;;;;;;;;;;;20.90;98.50;;;;;;5075083;28;19904;-82
2021/05/16 13:12:03;;;;;;;;;;;20.30;99.90;;;;;;5075267;28;19953;-80
2021/05/16 13:14:34;;;;;;;;;;;19.80;98.20;;;;;;5075157;28;19904;-81
2021/05/16 13:17:14;;;;;;;;;;;19.50;99.90;;;;;;5093185;28;19908;-81
2021/05/16 13:19:43;;;;;;;;;;;19.40;99.90;;;;;;5074961;28;19961;-79
2021/05/16 13:22:28;;;;;;;;;;;19.50;99.90;;;;;;5074584;28;20021;-80
2021/05/16 13:24:53;;;;;;;;;;;19.50;99.90;;;;;;5092832;28;19910;-80
2021/05/16 13:27:19;;;;;;;;;;;19.40;99.70;;;;;;5075051;28;19904;-81
2021/05/16 13:29:49;;;;;;;;;;;20.00;99.90;;;;;;5074794;28;19907;-79
2021/05/16 13:32:15;;;;;;;;;;;20.80;99.90;;;;;;5074930;28;19904;-79
2021/05/16 13:34:41;;;;;;;;;;;20.60;99.80;;;;;;5074583;28;19914;-79
2021/05/16 13:37:07;;;;;;;;;;;20.40;99.70;;;;;;5074850;28;19998;-80
2021/05/16 13:39:32;;;;;;;;;;;19.60;96.80;;;;;;5074324;28;20355;-80
2021/05/16 13:42:00;;;;;;;;;;;19.40;99.90;;;;;;5083922;28;19974;-80
2021/05/16 13:44:27;;;;;;;;;;;19.30;99.90;;;;;;5086335;28;19913;-81
2021/05/16 13:46:52;;;;;;;;;;;19.00;98.30;;;;;;5086472;28;19910;-80
2021/05/16 13:49:18;;;;;;;;;;;19.60;99.10;;;;;;5088280;28;19908;-81
2021/05/16 13:51:43;;;;;;;;;;;20.40;97.80;;;;;;5095029;28;19907;-83
2021/05/16 13:54:09;;;;;;;;;;;20.20;95.60;;;;;;5094993;28;20278;-81
2021/05/16 13:56:35;;;;;;;;;;;19.70;96.20;;;;;;5094690;28;19986;-80
2021/05/16 13:59:01;;;;;;;;;;;19.70;97.60;;;;;;5113341;28;19903;-81
2021/05/16 14:01:26;;;;;;;;;;;19.70;98.80;;;;;;5099295;28;20426;-80
2021/05/16 14:03:52;;;;;;;;;;;19.60;97.90;;;;;;5099437;28;20286;-80
2021/05/16 14:06:17;;;;;;;;;;;20.20;97.00;;;;;;5099035;28;19907;-79